KBPT/BPT METAR and TAF weather

Enter ICAO airport designator
Station Type Date Time Source
KBPT METAR 2020/09/18 22:53 UTC NOAA

KBPT 182253Z 04013KT 10SM CLR 28/12 A2993 RMK AO2 SLP133 T02830122


Station Type Date Time Source
KBPT Decoded METAR 2020/09/18 22:53 UTC NOAA

SOUTHEAST TEXAS RGNL AIRPORT, TX, United States (KBPT) 29-95N 094-08W 5M
Sep 18, 2020 - 06:53 PM EDT / 2020.09.18 2253 UTC
Wind: from the NE (040 degrees) at 15 MPH (13 KT):0
Visibility: 10 mile(s):0
Sky conditions: clear
Temperature: 82.9 F (28.3 C)
Dew Point: 54.0 F (12.2 C)
Relative Humidity: 36%
Pressure (altimeter): 29.93 in. Hg (1013 hPa)
ob: KBPT 182253Z 04013KT 10SM CLR 28/12 A2993 RMK AO2 SLP133 T02830122
cycle: 23

Station Type Date Time Source
KBPT TAF 2020/09/18 18:27 UTC NOAA

TAF KBPT 181724Z 1818/1918 03012KT P6SM BKN250
FM190200 04008KT P6SM SCT100 BKN250
FM191500 04012G18KT P6SM SCT200

Example: see airport list